| Date | Time | Temp. (oF) | Dew Point (oF) | Rel. Hum. (%) | Press. (in.) | Wind Dir. | Wind Speed (mph) | Hourly Rainfall (in.) |
|
|---|---|---|---|---|---|---|---|---|---|
| 1 | 01/07 | 00:00 | 19 | 7 | 61 | 30.33 | WNW | 6 | 0.00 |
| 2 | 01/06 | 23:00 | 20 | 8 | 60 | 30.32 | WNW | 2 | 0.00 |
| 3 | 01/06 | 22:00 | 20 | 7 | 57 | 30.27 | WNW | 5 | 0.00 |
| 4 | 01/06 | 21:00 | 22 | 9 | 58 | 30.29 | WNW | 4 | 0.00 |
| 5 | 01/06 | 20:00 | 23 | 10 | 58 | 30.27 | WNW | 6 | 0.00 |
| 6 | 01/06 | 19:00 | 24 | 10 | 56 | 30.27 | WNW | 4 | 0.00 |
| 7 | 01/06 | 18:00 | 24 | 11 | 58 | 30.23 | WNW | 2 | 0.00 |
| 8 | 01/06 | 17:00 | 25 | 12 | 58 | 30.20 | WNW | 5 | 0.00 |
| 9 | 01/06 | 16:00 | 25 | 10 | 53 | 30.17 | WNW | 5 | 0.00 |
| 10 | 01/06 | 15:00 | 26 | 9 | 49 | 30.14 | WNW | 7 | 0.00 |
| 11 | 01/06 | 14:00 | 27 | 12 | 53 | 30.13 | WNW | 7 | 0.00 |
| 12 | 01/06 | 13:00 | 28 | 16 | 62 | 30.11 | WNW | 10 | 0.00 |
| 13 | 01/06 | 12:00 | 27 | 15 | 61 | 30.12 | WNW | 5 | 0.00 |
| 14 | 01/06 | 11:00 | 26 | 15 | 65 | 30.13 | WNW | 7 | 0.00 |
| 15 | 01/06 | 10:00 | 25 | 16 | 71 | 30.13 | WNW | 9 | 0.00 |
| 16 | 01/06 | 09:00 | 23 | 16 | 77 | 30.10 | WNW | 3 | 0.00 |
| 17 | 01/06 | 08:00 | 22 | 17 | 83 | 30.07 | WNW | 0 | 0.00 |
| 18 | 01/06 | 07:00 | 24 | 21 | 90 | 30.02 | WNW | 2 | 0.00 |
| 19 | 01/06 | 06:00 | 25 | 23 | 95 | 30.01 | WNW | 3 | 0.00 |
| 20 | 01/06 | 05:00 | 25 | 23 | 95 | 29.98 | WNW | 9 | 0.00 |
| 21 | 01/06 | 04:00 | 25 | 23 | 94 | 29.96 | WNW | 1 | 0.00 |
| 22 | 01/06 | 03:00 | 26 | 25 | 99 | 29.96 | WNW | 0 | 0.00 |
| 23 | 01/06 | 02:00 | 26 | 25 | 99 | 29.96 | WNW | 0 | 0.02 |
| 24 | 01/06 | 01:00 | 26 | 26 | 100 | 29.96 | WNW | 0 | 0.03 |